KGKJ

Port Meadville Airport

Meadville, Pennsylvania, USA
METAR KGKJ 220041Z AUTO 34006KT 10SM BKN007 OVC055 00/00 A3054 RMK AO2 UPE28RAB28E34 P0000 T00000000
Observed Flight Rules
Feb-22 @ 00:41 UTC (4 hours ago) Instrument Flight Rules
Wind Visibility Clouds
340° at 6 knots 10 miles
  • Broken at 700' AGL
  • Overcast at 5,500' AGL
Temperatures Readings Precipitation
Current 0°C / 32°F
Dewpoint 0°C / 32°F
Humidity 100%
Altimeter 30.54" Hg
Pressure 1034 hPa
Elevation 428
Current Rain 0.005
METAR KGKJ 220041Z AUTO 34006KT 10SM BKN007 OVC055 00/00 A3054 RMK AO2 UPE28RAB28E34 P0000 T00000000
Observed Flight Rules
Feb-22 @ 00:41 UTC
(4 hours ago)
IFR
Wind Visibility
340° at 6 knots 10 miles
Clouds
  • Broken at 700' AGL
  • Overcast at 5,500' AGL
Temperature Dewpoint
0°C / 32°F 0°C / 32°F
Humidity Altimeter Pressure
100% 30.54" Hg 1034 hPa
Current Rain
0.005